sensor_id;sensor_type;location;lat;lon;timestamp;P1;durP1;ratioP1;P2;durP2;ratioP2
75135;SDS011;63707;52.212;9.540;2023-04-27T00:00:50;15.88;;;6.15;;
75135;SDS011;63707;52.212;9.540;2023-04-27T00:03:16;13.98;;;6.07;;
75135;SDS011;63707;52.212;9.540;2023-04-27T00:05:41;11.68;;;5.88;;
75135;SDS011;63707;52.212;9.540;2023-04-27T00:08:08;16.25;;;6.38;;
75135;SDS011;63707;52.212;9.540;2023-04-27T00:10:35;13.07;;;5.68;;
75135;SDS011;63707;52.212;9.540;2023-04-27T00:13:00;15.05;;;5.65;;
75135;SDS011;63707;52.212;9.540;2023-04-27T00:15:26;10.90;;;6.07;;
75135;SDS011;63707;52.212;9.540;2023-04-27T00:17:51;14.70;;;6.32;;
75135;SDS011;63707;52.212;9.540;2023-04-27T00:20:17;17.08;;;5.40;;
75135;SDS011;63707;52.212;9.540;2023-04-27T00:22:42;14.32;;;6.30;;
75135;SDS011;63707;52.212;9.540;2023-04-27T00:25:08;13.25;;;5.78;;
75135;SDS011;63707;52.212;9.540;2023-04-27T00:27:35;27.83;;;8.20;;
75135;SDS011;63707;52.212;9.540;2023-04-27T00:30:01;13.45;;;5.95;;
75135;SDS011;63707;52.212;9.540;2023-04-27T00:32:26;19.52;;;6.22;;
75135;SDS011;63707;52.212;9.540;2023-04-27T00:34:52;12.35;;;6.30;;
75135;SDS011;63707;52.212;9.540;2023-04-27T00:37:17;14.20;;;6.32;;
75135;SDS011;63707;52.212;9.540;2023-04-27T00:39:43;15.68;;;5.78;;
75135;SDS011;63707;52.212;9.540;2023-04-27T00:42:09;18.02;;;6.55;;
75135;SDS011;63707;52.212;9.540;2023-04-27T00:44:39;13.25;;;6.20;;
75135;SDS011;63707;52.212;9.540;2023-04-27T00:47:05;14.70;;;6.25;;
75135;SDS011;63707;52.212;9.540;2023-04-27T00:49:31;15.55;;;5.85;;
75135;SDS011;63707;52.212;9.540;2023-04-27T00:51:57;18.17;;;6.20;;
75135;SDS011;63707;52.212;9.540;2023-04-27T00:54:22;17.73;;;7.22;;
75135;SDS011;63707;52.212;9.540;2023-04-27T00:56:49;12.93;;;5.75;;
75135;SDS011;63707;52.212;9.540;2023-04-27T00:59:15;13.45;;;5.88;;
75135;SDS011;63707;52.212;9.540;2023-04-27T01:01:42;15.13;;;6.43;;
75135;SDS011;63707;52.212;9.540;2023-04-27T01:04:07;14.68;;;6.68;;
75135;SDS011;63707;52.212;9.540;2023-04-27T01:06:34;15.60;;;6.45;;
75135;SDS011;63707;52.212;9.540;2023-04-27T01:09:00;17.63;;;6.18;;
75135;SDS011;63707;52.212;9.540;2023-04-27T01:11:25;22.15;;;6.72;;
75135;SDS011;63707;52.212;9.540;2023-04-27T01:13:51;17.40;;;6.53;;
75135;SDS011;63707;52.212;9.540;2023-04-27T01:16:17;17.17;;;6.55;;
75135;SDS011;63707;52.212;9.540;2023-04-27T01:18:44;17.90;;;6.78;;
75135;SDS011;63707;52.212;9.540;2023-04-27T01:21:11;15.05;;;6.20;;
75135;SDS011;63707;52.212;9.540;2023-04-27T01:23:37;14.75;;;6.13;;
75135;SDS011;63707;52.212;9.540;2023-04-27T01:26:03;17.40;;;6.35;;
75135;SDS011;63707;52.212;9.540;2023-04-27T01:28:29;14.70;;;6.35;;
75135;SDS011;63707;52.212;9.540;2023-04-27T01:30:55;19.38;;;6.75;;
75135;SDS011;63707;52.212;9.540;2023-04-27T01:33:20;15.50;;;6.70;;
75135;SDS011;63707;52.212;9.540;2023-04-27T01:35:46;22.88;;;7.40;;
75135;SDS011;63707;52.212;9.540;2023-04-27T01:38:11;16.13;;;7.30;;
75135;SDS011;63707;52.212;9.540;2023-04-27T01:40:38;15.55;;;6.53;;
75135;SDS011;63707;52.212;9.540;2023-04-27T01:43:04;17.30;;;6.75;;
75135;SDS011;63707;52.212;9.540;2023-04-27T01:45:29;23.00;;;7.00;;
75135;SDS011;63707;52.212;9.540;2023-04-27T01:47:55;13.90;;;6.43;;
75135;SDS011;63707;52.212;9.540;2023-04-27T01:50:20;17.17;;;6.55;;
75135;SDS011;63707;52.212;9.540;2023-04-27T01:52:46;19.35;;;6.82;;
75135;SDS011;63707;52.212;9.540;2023-04-27T01:55:12;16.70;;;6.55;;
75135;SDS011;63707;52.212;9.540;2023-04-27T01:57:39;24.25;;;7.70;;
75135;SDS011;63707;52.212;9.540;2023-04-27T02:00:05;16.83;;;6.97;;
75135;SDS011;63707;52.212;9.540;2023-04-27T02:02:31;18.13;;;5.93;;
75135;SDS011;63707;52.212;9.540;2023-04-27T02:04:57;21.25;;;7.25;;
75135;SDS011;63707;52.212;9.540;2023-04-27T02:07:23;12.73;;;5.95;;
75135;SDS011;63707;52.212;9.540;2023-04-27T02:09:48;14.82;;;7.05;;
75135;SDS011;63707;52.212;9.540;2023-04-27T02:12:14;15.95;;;6.63;;
75135;SDS011;63707;52.212;9.540;2023-04-27T02:14:41;15.40;;;5.80;;
75135;SDS011;63707;52.212;9.540;2023-04-27T02:17:06;15.30;;;6.28;;
75135;SDS011;63707;52.212;9.540;2023-04-27T02:19:32;15.30;;;6.82;;
75135;SDS011;63707;52.212;9.540;2023-04-27T02:21:57;12.35;;;6.00;;
75135;SDS011;63707;52.212;9.540;2023-04-27T02:24:23;14.65;;;6.82;;
75135;SDS011;63707;52.212;9.540;2023-04-27T02:26:48;18.08;;;7.47;;
75135;SDS011;63707;52.212;9.540;2023-04-27T02:29:14;16.92;;;6.35;;
75135;SDS011;63707;52.212;9.540;2023-04-27T02:31:42;15.73;;;6.80;;
75135;SDS011;63707;52.212;9.540;2023-04-27T02:34:07;18.90;;;6.60;;
75135;SDS011;63707;52.212;9.540;2023-04-27T02:36:33;13.38;;;6.38;;
75135;SDS011;63707;52.212;9.540;2023-04-27T02:38:58;14.77;;;6.13;;
75135;SDS011;63707;52.212;9.540;2023-04-27T02:41:24;17.42;;;6.40;;
75135;SDS011;63707;52.212;9.540;2023-04-27T02:43:52;13.88;;;5.50;;
75135;SDS011;63707;52.212;9.540;2023-04-27T02:46:17;15.77;;;5.72;;
75135;SDS011;63707;52.212;9.540;2023-04-27T02:48:44;16.10;;;5.93;;
75135;SDS011;63707;52.212;9.540;2023-04-27T02:51:09;17.13;;;6.18;;
75135;SDS011;63707;52.212;9.540;2023-04-27T02:53:35;15.20;;;6.03;;
75135;SDS011;63707;52.212;9.540;2023-04-27T02:56:00;14.45;;;6.05;;
75135;SDS011;63707;52.212;9.540;2023-04-27T02:58:26;12.63;;;4.25;;
75135;SDS011;63707;52.212;9.540;2023-04-27T03:00:54;11.45;;;4.82;;
75135;SDS011;63707;52.212;9.540;2023-04-27T03:03:20;11.93;;;5.53;;
75135;SDS011;63707;52.212;9.540;2023-04-27T03:05:47;10.75;;;5.10;;
75135;SDS011;63707;52.212;9.540;2023-04-27T03:08:13;7.82;;;4.20;;
75135;SDS011;63707;52.212;9.540;2023-04-27T03:10:38;13.43;;;4.80;;
75135;SDS011;63707;52.212;9.540;2023-04-27T03:13:04;13.25;;;4.63;;
75135;SDS011;63707;52.212;9.540;2023-04-27T03:15:30;16.42;;;5.50;;
75135;SDS011;63707;52.212;9.540;2023-04-27T03:17:56;13.77;;;4.82;;
75135;SDS011;63707;52.212;9.540;2023-04-27T03:20:21;12.02;;;5.03;;
75135;SDS011;63707;52.212;9.540;2023-04-27T03:22:48;12.10;;;5.00;;
75135;SDS011;63707;52.212;9.540;2023-04-27T03:25:14;15.70;;;4.97;;
75135;SDS011;63707;52.212;9.540;2023-04-27T03:27:39;12.55;;;4.80;;
75135;SDS011;63707;52.212;9.540;2023-04-27T03:30:05;16.27;;;5.60;;
75135;SDS011;63707;52.212;9.540;2023-04-27T03:32:31;14.02;;;4.30;;
75135;SDS011;63707;52.212;9.540;2023-04-27T03:34:57;14.10;;;4.32;;
75135;SDS011;63707;52.212;9.540;2023-04-27T03:37:22;11.45;;;4.25;;
75135;SDS011;63707;52.212;9.540;2023-04-27T03:39:49;13.23;;;4.55;;
75135;SDS011;63707;52.212;9.540;2023-04-27T03:42:15;10.13;;;4.45;;
75135;SDS011;63707;52.212;9.540;2023-04-27T03:44:40;10.75;;;5.20;;
75135;SDS011;63707;52.212;9.540;2023-04-27T03:47:05;13.20;;;4.70;;
75135;SDS011;63707;52.212;9.540;2023-04-27T03:49:33;14.23;;;4.70;;
75135;SDS011;63707;52.212;9.540;2023-04-27T03:51:59;14.30;;;4.57;;
75135;SDS011;63707;52.212;9.540;2023-04-27T03:54:25;13.38;;;4.85;;
75135;SDS011;63707;52.212;9.540;2023-04-27T03:56:51;16.17;;;4.72;;
75135;SDS011;63707;52.212;9.540;2023-04-27T03:59:17;15.55;;;5.95;;
75135;SDS011;63707;52.212;9.540;2023-04-27T04:01:42;16.15;;;4.78;;
75135;SDS011;63707;52.212;9.540;2023-04-27T04:04:08;13.45;;;5.65;;
75135;SDS011;63707;52.212;9.540;2023-04-27T04:06:33;14.00;;;4.10;;
75135;SDS011;63707;52.212;9.540;2023-04-27T04:08:59;12.57;;;4.78;;
75135;SDS011;63707;52.212;9.540;2023-04-27T04:11:25;14.43;;;4.43;;
75135;SDS011;63707;52.212;9.540;2023-04-27T04:13:52;13.93;;;4.47;;
75135;SDS011;63707;52.212;9.540;2023-04-27T04:16:18;8.65;;;4.05;;
75135;SDS011;63707;52.212;9.540;2023-04-27T04:18:43;16.60;;;4.95;;
75135;SDS011;63707;52.212;9.540;2023-04-27T04:21:09;15.30;;;4.82;;
75135;SDS011;63707;52.212;9.540;2023-04-27T04:23:35;17.40;;;6.25;;
75135;SDS011;63707;52.212;9.540;2023-04-27T04:26:01;16.60;;;4.88;;
75135;SDS011;63707;52.212;9.540;2023-04-27T04:28:27;10.27;;;5.30;;
75135;SDS011;63707;52.212;9.540;2023-04-27T04:30:53;16.75;;;4.95;;
75135;SDS011;63707;52.212;9.540;2023-04-27T04:33:19;16.20;;;4.68;;
75135;SDS011;63707;52.212;9.540;2023-04-27T04:35:45;12.18;;;4.68;;
75135;SDS011;63707;52.212;9.540;2023-04-27T04:38:11;14.82;;;4.68;;
75135;SDS011;63707;52.212;9.540;2023-04-27T04:40:36;12.38;;;4.47;;
75135;SDS011;63707;52.212;9.540;2023-04-27T04:43:02;10.40;;;5.00;;
75135;SDS011;63707;52.212;9.540;2023-04-27T04:45:28;12.63;;;4.40;;
75135;SDS011;63707;52.212;9.540;2023-04-27T04:47:55;14.07;;;4.50;;
75135;SDS011;63707;52.212;9.540;2023-04-27T04:50:21;13.35;;;4.38;;
75135;SDS011;63707;52.212;9.540;2023-04-27T04:52:47;16.42;;;4.57;;
75135;SDS011;63707;52.212;9.540;2023-04-27T04:55:13;14.25;;;4.80;;
75135;SDS011;63707;52.212;9.540;2023-04-27T04:57:38;12.10;;;4.68;;
75135;SDS011;63707;52.212;9.540;2023-04-27T05:00:04;15.00;;;5.60;;
75135;SDS011;63707;52.212;9.540;2023-04-27T05:02:35;17.02;;;5.72;;
75135;SDS011;63707;52.212;9.540;2023-04-27T05:05:02;16.20;;;5.88;;
75135;SDS011;63707;52.212;9.540;2023-04-27T05:07:28;15.48;;;6.10;;
75135;SDS011;63707;52.212;9.540;2023-04-27T05:09:53;12.82;;;5.32;;
75135;SDS011;63707;52.212;9.540;2023-04-27T05:12:19;13.00;;;5.53;;
75135;SDS011;63707;52.212;9.540;2023-04-27T05:14:44;20.83;;;6.35;;
75135;SDS011;63707;52.212;9.540;2023-04-27T05:17:10;14.07;;;5.75;;
75135;SDS011;63707;52.212;9.540;2023-04-27T05:19:36;11.13;;;5.32;;
75135;SDS011;63707;52.212;9.540;2023-04-27T05:22:03;15.57;;;6.20;;
75135;SDS011;63707;52.212;9.540;2023-04-27T05:24:28;12.80;;;5.20;;
75135;SDS011;63707;52.212;9.540;2023-04-27T05:26:54;18.70;;;5.50;;
75135;SDS011;63707;52.212;9.540;2023-04-27T05:29:19;11.90;;;5.20;;
75135;SDS011;63707;52.212;9.540;2023-04-27T05:31:45;15.27;;;6.32;;
75135;SDS011;63707;52.212;9.540;2023-04-27T05:34:11;12.15;;;5.35;;
75135;SDS011;63707;52.212;9.540;2023-04-27T05:36:37;12.38;;;5.13;;
75135;SDS011;63707;52.212;9.540;2023-04-27T05:39:04;13.32;;;6.10;;
75135;SDS011;63707;52.212;9.540;2023-04-27T05:41:30;17.05;;;6.13;;
75135;SDS011;63707;52.212;9.540;2023-04-27T05:43:55;10.60;;;5.13;;
75135;SDS011;63707;52.212;9.540;2023-04-27T05:46:21;12.98;;;5.88;;
75135;SDS011;63707;52.212;9.540;2023-04-27T05:48:46;14.50;;;5.93;;
75135;SDS011;63707;52.212;9.540;2023-04-27T05:51:12;11.82;;;5.43;;
75135;SDS011;63707;52.212;9.540;2023-04-27T05:53:37;9.85;;;5.18;;
75135;SDS011;63707;52.212;9.540;2023-04-27T05:56:05;14.70;;;5.35;;
75135;SDS011;63707;52.212;9.540;2023-04-27T05:58:31;15.75;;;5.70;;
75135;SDS011;63707;52.212;9.540;2023-04-27T06:00:57;15.07;;;5.68;;
75135;SDS011;63707;52.212;9.540;2023-04-27T06:03:22;12.68;;;6.32;;
75135;SDS011;63707;52.212;9.540;2023-04-27T06:05:52;10.15;;;5.18;;
75135;SDS011;63707;52.212;9.540;2023-04-27T06:08:18;14.07;;;5.43;;
75135;SDS011;63707;52.212;9.540;2023-04-27T06:10:44;12.48;;;5.43;;
75135;SDS011;63707;52.212;9.540;2023-04-27T06:13:11;13.65;;;6.40;;
75135;SDS011;63707;52.212;9.540;2023-04-27T06:15:36;13.10;;;5.65;;
75135;SDS011;63707;52.212;9.540;2023-04-27T06:18:02;18.15;;;5.75;;
75135;SDS011;63707;52.212;9.540;2023-04-27T06:20:28;11.73;;;5.18;;
75135;SDS011;63707;52.212;9.540;2023-04-27T06:22:53;11.60;;;5.07;;
75135;SDS011;63707;52.212;9.540;2023-04-27T06:25:19;10.52;;;5.57;;
75135;SDS011;63707;52.212;9.540;2023-04-27T06:27:44;10.38;;;5.13;;
75135;SDS011;63707;52.212;9.540;2023-04-27T06:30:13;8.18;;;4.18;;
75135;SDS011;63707;52.212;9.540;2023-04-27T06:32:38;11.48;;;4.80;;
75135;SDS011;63707;52.212;9.540;2023-04-27T06:35:04;12.02;;;4.68;;
75135;SDS011;63707;52.212;9.540;2023-04-27T06:37:30;13.98;;;5.70;;
75135;SDS011;63707;52.212;9.540;2023-04-27T06:39:56;12.68;;;4.78;;
75135;SDS011;63707;52.212;9.540;2023-04-27T06:42:21;10.40;;;4.80;;
75135;SDS011;63707;52.212;9.540;2023-04-27T06:44:47;9.63;;;4.93;;
75135;SDS011;63707;52.212;9.540;2023-04-27T06:47:14;10.73;;;4.45;;
75135;SDS011;63707;52.212;9.540;2023-04-27T06:49:39;10.70;;;4.35;;
75135;SDS011;63707;52.212;9.540;2023-04-27T06:52:05;11.98;;;4.78;;
75135;SDS011;63707;52.212;9.540;2023-04-27T06:54:31;12.82;;;4.68;;
75135;SDS011;63707;52.212;9.540;2023-04-27T06:56:56;11.45;;;4.28;;
75135;SDS011;63707;52.212;9.540;2023-04-27T06:59:22;8.10;;;2.83;;
75135;SDS011;63707;52.212;9.540;2023-04-27T07:01:47;7.78;;;3.60;;
75135;SDS011;63707;52.212;9.540;2023-04-27T07:04:14;10.68;;;3.60;;
75135;SDS011;63707;52.212;9.540;2023-04-27T07:06:40;9.32;;;3.97;;
75135;SDS011;63707;52.212;9.540;2023-04-27T07:09:05;6.63;;;2.67;;
75135;SDS011;63707;52.212;9.540;2023-04-27T07:11:31;8.20;;;3.20;;
75135;SDS011;63707;52.212;9.540;2023-04-27T07:13:56;8.18;;;3.30;;
75135;SDS011;63707;52.212;9.540;2023-04-27T07:16:22;8.75;;;3.92;;
75135;SDS011;63707;52.212;9.540;2023-04-27T07:18:47;9.82;;;3.20;;
75135;SDS011;63707;52.212;9.540;2023-04-27T07:21:14;5.32;;;2.70;;
75135;SDS011;63707;52.212;9.540;2023-04-27T07:23:40;8.63;;;3.42;;
75135;SDS011;63707;52.212;9.540;2023-04-27T07:26:05;9.10;;;3.35;;
75135;SDS011;63707;52.212;9.540;2023-04-27T07:28:32;7.85;;;3.03;;
75135;SDS011;63707;52.212;9.540;2023-04-27T07:30:59;7.95;;;3.40;;
75135;SDS011;63707;52.212;9.540;2023-04-27T07:33:25;8.63;;;2.97;;
75135;SDS011;63707;52.212;9.540;2023-04-27T07:35:51;7.45;;;2.78;;
75135;SDS011;63707;52.212;9.540;2023-04-27T07:38:19;5.53;;;2.72;;
75135;SDS011;63707;52.212;9.540;2023-04-27T07:40:44;8.52;;;2.80;;
75135;SDS011;63707;52.212;9.540;2023-04-27T07:43:10;8.25;;;2.95;;
75135;SDS011;63707;52.212;9.540;2023-04-27T07:45:35;6.88;;;2.50;;
75135;SDS011;63707;52.212;9.540;2023-04-27T07:48:03;7.10;;;2.17;;
75135;SDS011;63707;52.212;9.540;2023-04-27T07:50:29;5.47;;;1.75;;
75135;SDS011;63707;52.212;9.540;2023-04-27T07:52:55;4.47;;;1.38;;
75135;SDS011;63707;52.212;9.540;2023-04-27T07:55:23;4.82;;;1.42;;
75135;SDS011;63707;52.212;9.540;2023-04-27T07:57:51;5.68;;;1.40;;
75135;SDS011;63707;52.212;9.540;2023-04-27T08:00:18;3.53;;;1.60;;
75135;SDS011;63707;52.212;9.540;2023-04-27T08:02:43;4.28;;;1.40;;
75135;SDS011;63707;52.212;9.540;2023-04-27T08:05:09;6.30;;;1.48;;
75135;SDS011;63707;52.212;9.540;2023-04-27T08:07:35;7.47;;;1.40;;
75135;SDS011;63707;52.212;9.540;2023-04-27T08:10:00;5.10;;;1.40;;
75135;SDS011;63707;52.212;9.540;2023-04-27T08:12:27;5.35;;;1.70;;
75135;SDS011;63707;52.212;9.540;2023-04-27T08:14:53;4.28;;;1.23;;
75135;SDS011;63707;52.212;9.540;2023-04-27T08:17:18;5.72;;;1.48;;
75135;SDS011;63707;52.212;9.540;2023-04-27T08:19:46;5.50;;;1.35;;
75135;SDS011;63707;52.212;9.540;2023-04-27T08:22:11;4.78;;;1.50;;
75135;SDS011;63707;52.212;9.540;2023-04-27T08:24:37;4.72;;;1.45;;
75135;SDS011;63707;52.212;9.540;2023-04-27T08:27:02;3.13;;;1.48;;
75135;SDS011;63707;52.212;9.540;2023-04-27T08:29:30;5.68;;;2.03;;
75135;SDS011;63707;52.212;9.540;2023-04-27T08:31:57;4.50;;;1.42;;
75135;SDS011;63707;52.212;9.540;2023-04-27T08:34:23;3.55;;;1.35;;
75135;SDS011;63707;52.212;9.540;2023-04-27T08:36:48;6.80;;;1.67;;
75135;SDS011;63707;52.212;9.540;2023-04-27T08:39:14;4.85;;;1.70;;
75135;SDS011;63707;52.212;9.540;2023-04-27T08:41:41;5.47;;;1.70;;
75135;SDS011;63707;52.212;9.540;2023-04-27T08:44:07;4.80;;;1.58;;
75135;SDS011;63707;52.212;9.540;2023-04-27T08:46:35;5.20;;;1.70;;
75135;SDS011;63707;52.212;9.540;2023-04-27T08:49:12;5.85;;;1.95;;
75135;SDS011;63707;52.212;9.540;2023-04-27T08:51:38;4.82;;;1.70;;
75135;SDS011;63707;52.212;9.540;2023-04-27T08:54:04;4.55;;;1.77;;
75135;SDS011;63707;52.212;9.540;2023-04-27T08:56:30;4.40;;;1.65;;
75135;SDS011;63707;52.212;9.540;2023-04-27T08:58:56;4.50;;;1.45;;
75135;SDS011;63707;52.212;9.540;2023-04-27T09:01:23;4.63;;;1.70;;
75135;SDS011;63707;52.212;9.540;2023-04-27T09:03:55;4.72;;;1.80;;
75135;SDS011;63707;52.212;9.540;2023-04-27T09:06:27;8.00;;;1.95;;
75135;SDS011;63707;52.212;9.540;2023-04-27T09:08:54;5.60;;;1.70;;
75135;SDS011;63707;52.212;9.540;2023-04-27T09:11:27;6.18;;;1.90;;
75135;SDS011;63707;52.212;9.540;2023-04-27T09:13:53;5.93;;;2.25;;
75135;SDS011;63707;52.212;9.540;2023-04-27T09:16:21;4.32;;;1.67;;
75135;SDS011;63707;52.212;9.540;2023-04-27T09:18:47;5.45;;;2.20;;
75135;SDS011;63707;52.212;9.540;2023-04-27T09:21:21;5.20;;;1.95;;
75135;SDS011;63707;52.212;9.540;2023-04-27T09:23:47;3.70;;;1.80;;
75135;SDS011;63707;52.212;9.540;2023-04-27T09:26:18;6.07;;;2.38;;
75135;SDS011;63707;52.212;9.540;2023-04-27T09:28:47;8.50;;;2.15;;
75135;SDS011;63707;52.212;9.540;2023-04-27T09:31:13;7.13;;;2.15;;
75135;SDS011;63707;52.212;9.540;2023-04-27T09:33:39;4.75;;;2.03;;
75135;SDS011;63707;52.212;9.540;2023-04-27T09:36:05;6.82;;;2.22;;
75135;SDS011;63707;52.212;9.540;2023-04-27T09:38:32;4.65;;;1.85;;
75135;SDS011;63707;52.212;9.540;2023-04-27T09:40:58;5.10;;;1.83;;
75135;SDS011;63707;52.212;9.540;2023-04-27T09:43:24;6.10;;;1.80;;
75135;SDS011;63707;52.212;9.540;2023-04-27T09:45:51;5.57;;;2.03;;
75135;SDS011;63707;52.212;9.540;2023-04-27T09:48:18;5.63;;;1.90;;
75135;SDS011;63707;52.212;9.540;2023-04-27T09:50:45;3.80;;;1.80;;
75135;SDS011;63707;52.212;9.540;2023-04-27T09:53:14;4.40;;;2.15;;
75135;SDS011;63707;52.212;9.540;2023-04-27T09:55:44;6.00;;;1.80;;
75135;SDS011;63707;52.212;9.540;2023-04-27T09:58:26;9.20;;;2.38;;
75135;SDS011;63707;52.212;9.540;2023-04-27T10:01:12;3.38;;;1.77;;
75135;SDS011;63707;52.212;9.540;2023-04-27T10:03:56;7.05;;;2.10;;
75135;SDS011;63707;52.212;9.540;2023-04-27T10:06:50;7.45;;;2.33;;
75135;SDS011;63707;52.212;9.540;2023-04-27T10:09:21;4.63;;;1.95;;
75135;SDS011;63707;52.212;9.540;2023-04-27T10:11:49;4.57;;;2.00;;
75135;SDS011;63707;52.212;9.540;2023-04-27T10:14:16;4.93;;;1.90;;
75135;SDS011;63707;52.212;9.540;2023-04-27T10:16:43;6.45;;;2.10;;
75135;SDS011;63707;52.212;9.540;2023-04-27T10:19:10;8.02;;;2.20;;
75135;SDS011;63707;52.212;9.540;2023-04-27T10:21:37;5.97;;;1.77;;
75135;SDS011;63707;52.212;9.540;2023-04-27T10:24:14;7.30;;;2.20;;
75135;SDS011;63707;52.212;9.540;2023-04-27T10:26:44;4.97;;;2.15;;
75135;SDS011;63707;52.212;9.540;2023-04-27T10:29:12;4.40;;;2.00;;
75135;SDS011;63707;52.212;9.540;2023-04-27T10:31:42;6.97;;;2.40;;
75135;SDS011;63707;52.212;9.540;2023-04-27T10:34:08;6.18;;;2.40;;
75135;SDS011;63707;52.212;9.540;2023-04-27T10:36:35;7.22;;;2.20;;
75135;SDS011;63707;52.212;9.540;2023-04-27T10:39:01;9.02;;;2.58;;
75135;SDS011;63707;52.212;9.540;2023-04-27T10:41:32;7.63;;;2.20;;
75135;SDS011;63707;52.212;9.540;2023-04-27T10:44:13;3.75;;;2.15;;
75135;SDS011;63707;52.212;9.540;2023-04-27T10:46:48;6.03;;;1.77;;
75135;SDS011;63707;52.212;9.540;2023-04-27T10:49:14;4.72;;;2.20;;
75135;SDS011;63707;52.212;9.540;2023-04-27T10:51:40;4.25;;;2.17;;
75135;SDS011;63707;52.212;9.540;2023-04-27T10:54:06;4.40;;;1.88;;
75135;SDS011;63707;52.212;9.540;2023-04-27T10:56:32;4.60;;;2.30;;
75135;SDS011;63707;52.212;9.540;2023-04-27T10:59:00;6.65;;;2.70;;
75135;SDS011;63707;52.212;9.540;2023-04-27T11:01:28;5.45;;;2.50;;
75135;SDS011;63707;52.212;9.540;2023-04-27T11:03:54;7.25;;;2.60;;
75135;SDS011;63707;52.212;9.540;2023-04-27T11:06:21;5.25;;;2.28;;
75135;SDS011;63707;52.212;9.540;2023-04-27T11:08:46;3.53;;;2.20;;
75135;SDS011;63707;52.212;9.540;2023-04-27T11:11:12;3.78;;;2.00;;
75135;SDS011;63707;52.212;9.540;2023-04-27T11:13:38;2.83;;;1.80;;
75135;SDS011;63707;52.212;9.540;2023-04-27T11:16:07;4.55;;;1.92;;
75135;SDS011;63707;52.212;9.540;2023-04-27T11:18:35;5.65;;;1.90;;
75135;SDS011;63707;52.212;9.540;2023-04-27T11:21:05;5.65;;;2.00;;
75135;SDS011;63707;52.212;9.540;2023-04-27T11:23:32;6.28;;;2.60;;
75135;SDS011;63707;52.212;9.540;2023-04-27T11:26:07;5.63;;;2.25;;
75135;SDS011;63707;52.212;9.540;2023-04-27T11:28:33;4.60;;;1.95;;
75135;SDS011;63707;52.212;9.540;2023-04-27T11:30:59;5.95;;;1.95;;
75135;SDS011;63707;52.212;9.540;2023-04-27T11:33:25;5.63;;;2.13;;
75135;SDS011;63707;52.212;9.540;2023-04-27T11:35:52;5.10;;;2.17;;
75135;SDS011;63707;52.212;9.540;2023-04-27T11:38:18;4.25;;;2.03;;
75135;SDS011;63707;52.212;9.540;2023-04-27T11:40:45;4.55;;;1.88;;
75135;SDS011;63707;52.212;9.540;2023-04-27T11:43:12;4.43;;;2.00;;
75135;SDS011;63707;52.212;9.540;2023-04-27T11:45:40;3.13;;;1.75;;
75135;SDS011;63707;52.212;9.540;2023-04-27T11:48:08;6.10;;;2.15;;
75135;SDS011;63707;52.212;9.540;2023-04-27T11:50:37;4.80;;;2.00;;
75135;SDS011;63707;52.212;9.540;2023-04-27T11:53:05;6.63;;;2.47;;
75135;SDS011;63707;52.212;9.540;2023-04-27T11:55:34;6.45;;;1.95;;
75135;SDS011;63707;52.212;9.540;2023-04-27T11:58:00;3.63;;;2.15;;
75135;SDS011;63707;52.212;9.540;2023-04-27T12:00:25;3.15;;;2.13;;
75135;SDS011;63707;52.212;9.540;2023-04-27T12:02:51;4.57;;;2.13;;
75135;SDS011;63707;52.212;9.540;2023-04-27T12:05:16;3.90;;;2.28;;
75135;SDS011;63707;52.212;9.540;2023-04-27T12:07:43;4.32;;;2.30;;
75135;SDS011;63707;52.212;9.540;2023-04-27T12:10:11;3.35;;;2.08;;
75135;SDS011;63707;52.212;9.540;2023-04-27T12:12:36;4.18;;;2.15;;
75135;SDS011;63707;52.212;9.540;2023-04-27T12:15:03;4.82;;;2.42;;
75135;SDS011;63707;52.212;9.540;2023-04-27T12:17:28;5.32;;;2.13;;
75135;SDS011;63707;52.212;9.540;2023-04-27T12:19:54;4.93;;;2.10;;
75135;SDS011;63707;52.212;9.540;2023-04-27T12:22:20;6.32;;;2.63;;
75135;SDS011;63707;52.212;9.540;2023-04-27T12:24:45;4.85;;;2.13;;
75135;SDS011;63707;52.212;9.540;2023-04-27T12:27:12;3.90;;;2.22;;
75135;SDS011;63707;52.212;9.540;2023-04-27T12:29:39;5.28;;;2.40;;
75135;SDS011;63707;52.212;9.540;2023-04-27T12:32:04;4.38;;;2.13;;
75135;SDS011;63707;52.212;9.540;2023-04-27T12:34:30;5.97;;;2.63;;
75135;SDS011;63707;52.212;9.540;2023-04-27T12:36:55;5.18;;;2.05;;
75135;SDS011;63707;52.212;9.540;2023-04-27T12:39:21;6.43;;;2.10;;
75135;SDS011;63707;52.212;9.540;2023-04-27T12:41:49;5.03;;;2.20;;
75135;SDS011;63707;52.212;9.540;2023-04-27T12:44:16;3.35;;;2.20;;
75135;SDS011;63707;52.212;9.540;2023-04-27T12:46:43;4.03;;;2.50;;
75135;SDS011;63707;52.212;9.540;2023-04-27T12:49:09;7.43;;;3.05;;
75135;SDS011;63707;52.212;9.540;2023-04-27T12:51:36;4.97;;;2.67;;
75135;SDS011;63707;52.212;9.540;2023-04-27T12:54:02;4.50;;;2.20;;
75135;SDS011;63707;52.212;9.540;2023-04-27T12:56:28;5.90;;;2.22;;
75135;SDS011;63707;52.212;9.540;2023-04-27T12:58:54;6.30;;;2.10;;
75135;SDS011;63707;52.212;9.540;2023-04-27T13:01:22;5.07;;;2.25;;
75135;SDS011;63707;52.212;9.540;2023-04-27T13:03:51;6.63;;;2.50;;
75135;SDS011;63707;52.212;9.540;2023-04-27T13:06:17;5.78;;;2.35;;
75135;SDS011;63707;52.212;9.540;2023-04-27T13:08:43;6.57;;;2.35;;
75135;SDS011;63707;52.212;9.540;2023-04-27T13:11:09;6.13;;;2.55;;
75135;SDS011;63707;52.212;9.540;2023-04-27T13:13:34;6.63;;;2.78;;
75135;SDS011;63707;52.212;9.540;2023-04-27T13:16:00;8.55;;;2.75;;
75135;SDS011;63707;52.212;9.540;2023-04-27T13:18:27;3.45;;;2.50;;
75135;SDS011;63707;52.212;9.540;2023-04-27T13:20:54;5.60;;;2.53;;
75135;SDS011;63707;52.212;9.540;2023-04-27T13:23:20;4.93;;;2.35;;
75135;SDS011;63707;52.212;9.540;2023-04-27T13:25:46;5.43;;;2.22;;
75135;SDS011;63707;52.212;9.540;2023-04-27T13:28:11;4.70;;;2.40;;
75135;SDS011;63707;52.212;9.540;2023-04-27T13:30:37;8.77;;;2.67;;
75135;SDS011;63707;52.212;9.540;2023-04-27T13:33:02;6.63;;;2.78;;
75135;SDS011;63707;52.212;9.540;2023-04-27T13:35:29;6.45;;;2.80;;
75135;SDS011;63707;52.212;9.540;2023-04-27T13:37:55;4.65;;;2.42;;
75135;SDS011;63707;52.212;9.540;2023-04-27T13:40:20;5.40;;;2.50;;
75135;SDS011;63707;52.212;9.540;2023-04-27T13:42:46;3.72;;;2.47;;
75135;SDS011;63707;52.212;9.540;2023-04-27T13:45:11;5.25;;;2.45;;
75135;SDS011;63707;52.212;9.540;2023-04-27T13:47:38;7.82;;;2.53;;
75135;SDS011;63707;52.212;9.540;2023-04-27T13:50:04;7.80;;;2.65;;
75135;SDS011;63707;52.212;9.540;2023-04-27T13:52:31;4.15;;;2.50;;
75135;SDS011;63707;52.212;9.540;2023-04-27T13:54:58;6.03;;;2.38;;
75135;SDS011;63707;52.212;9.540;2023-04-27T13:57:23;8.00;;;2.60;;
75135;SDS011;63707;52.212;9.540;2023-04-27T13:59:49;3.63;;;2.38;;
75135;SDS011;63707;52.212;9.540;2023-04-27T14:02:14;5.72;;;2.47;;
75135;SDS011;63707;52.212;9.540;2023-04-27T14:04:40;5.68;;;2.40;;
75135;SDS011;63707;52.212;9.540;2023-04-27T14:07:05;4.30;;;2.67;;
75135;SDS011;63707;52.212;9.540;2023-04-27T14:09:32;6.13;;;2.80;;
75135;SDS011;63707;52.212;9.540;2023-04-27T14:11:58;5.65;;;2.85;;
75135;SDS011;63707;52.212;9.540;2023-04-27T14:14:24;6.93;;;2.63;;
75135;SDS011;63707;52.212;9.540;2023-04-27T14:16:50;6.97;;;2.30;;
75135;SDS011;63707;52.212;9.540;2023-04-27T14:19:16;4.25;;;2.35;;
75135;SDS011;63707;52.212;9.540;2023-04-27T14:21:44;6.70;;;2.60;;
75135;SDS011;63707;52.212;9.540;2023-04-27T14:24:09;4.00;;;2.40;;
75135;SDS011;63707;52.212;9.540;2023-04-27T14:26:36;4.28;;;2.53;;
75135;SDS011;63707;52.212;9.540;2023-04-27T14:29:02;5.00;;;2.50;;
75135;SDS011;63707;52.212;9.540;2023-04-27T14:31:27;4.75;;;2.40;;
75135;SDS011;63707;52.212;9.540;2023-04-27T14:33:53;5.75;;;2.67;;
75135;SDS011;63707;52.212;9.540;2023-04-27T14:36:20;4.63;;;2.67;;